Time;durP1;ratioP1;P1;durP2;ratioP2;P2;SDS_P1;SDS_P2;PMS_P1;PMS_P2;Temp;Humidity;BMP_temperature;BMP_pressure;BME280_temperature;BME280_humidity;BME280_pressure;Samples;Min_cycle;Max_cycle;Signal;HPM_P1;HPM_P2
2023/12/24 00:01:49;;;;;;;10.60;2.20;;;;;;;1.99;83.14;99343.21;110771;1212;138627;-64
2023/12/24 00:04:14;;;;;;;6.60;2.10;;;;;;;2.00;83.12;99346.89;110864;1207;98928;-64
2023/12/24 00:06:40;;;;;;;9.00;1.90;;;;;;;2.03;83.18;99348.02;110865;1210;139871;-64
2023/12/24 00:09:05;;;;;;;9.60;1.70;;;;;;;2.06;83.32;99352.69;110936;1206;99050;-64
2023/12/24 00:11:31;;;;;;;12.40;3.60;;;;;;;2.07;83.34;99356.02;111013;1225;99318;-66
2023/12/24 00:13:57;;;;;;;10.20;2.00;;;;;;;2.06;83.29;99354.64;110821;1206;138570;-64
2023/12/24 00:16:23;;;;;;;9.20;2.00;;;;;;;2.10;83.23;99354.52;110970;1209;99083;-65
2023/12/24 00:18:48;;;;;;;6.20;1.80;;;;;;;2.11;83.32;99358.19;110775;1212;139310;-64
2023/12/24 00:21:14;;;;;;;7.40;2.00;;;;;;;2.13;83.40;99359.90;110974;1209;98987;-65
2023/12/24 00:23:39;;;;;;;9.80;1.70;;;;;;;2.12;83.34;99358.67;110949;1206;99015;-66
2023/12/24 00:26:05;;;;;;;9.20;1.90;;;;;;;2.13;83.46;99357.79;110879;1206;138902;-65
2023/12/24 00:28:30;;;;;;;7.70;2.40;;;;;;;2.12;83.53;99364.14;110967;1212;98915;-65
2023/12/24 00:30:55;;;;;;;5.20;2.00;;;;;;;2.14;83.52;99364.81;110893;1207;138466;-66
2023/12/24 00:33:22;;;;;;;8.10;1.90;;;;;;;2.14;83.39;99366.72;111063;1219;99020;-66
2023/12/24 00:35:47;;;;;;;7.50;2.10;;;;;;;2.16;83.56;99374.41;111019;1209;99027;-66
2023/12/24 00:38:14;;;;;;;5.40;1.80;;;;;;;2.14;83.34;99380.30;110867;1206;138151;-65
2023/12/24 00:40:39;;;;;;;10.00;1.70;;;;;;;2.13;83.41;99377.86;111132;1218;98996;-65
2023/12/24 00:43:05;;;;;;;6.50;1.90;;;;;;;2.16;83.54;99376.72;110837;1206;139078;-65
2023/12/24 00:45:31;;;;;;;6.40;2.20;;;;;;;2.16;83.52;99377.77;110961;1212;99049;-66
2023/12/24 00:47:57;;;;;;;11.80;2.30;;;;;;;2.16;83.50;99376.55;111197;1206;99037;-66
2023/12/24 00:50:25;;;;;;;11.20;2.70;;;;;;;2.17;83.57;99378.80;110887;1210;138438;-65
2023/12/24 00:52:50;;;;;;;10.00;2.30;;;;;;;2.18;83.81;99375.58;110966;1209;107732;-65
2023/12/24 00:55:15;;;;;;;14.10;3.60;;;;;;;2.19;83.72;99378.91;110842;1206;138690;-65
2023/12/24 00:57:41;;;;;;;8.80;2.50;;;;;;;2.20;83.62;99377.99;111086;1219;98850;-65
2023/12/24 01:00:07;;;;;;;7.00;2.10;;;;;;;2.21;83.53;99378.32;111013;1212;99175;-65
2023/12/24 01:02:33;;;;;;;6.80;2.20;;;;;;;2.19;83.58;99378.20;110805;1211;139878;-65
2023/12/24 01:04:58;;;;;;;7.40;2.20;;;;;;;2.19;83.67;99382.44;111089;1209;99035;-66
2023/12/24 01:07:24;;;;;;;5.90;2.30;;;;;;;2.17;83.56;99377.91;110831;1206;138713;-66
2023/12/24 01:09:49;;;;;;;14.00;2.80;;;;;;;2.15;83.76;99377.80;111027;1206;98923;-66
2023/12/24 01:12:16;;;;;;;5.50;1.70;;;;;;;2.14;83.70;99375.73;110908;1209;139166;-65
2023/12/24 01:14:41;;;;;;;8.30;2.10;;;;;;;2.14;83.69;99378.54;110963;1206;99002;-66
2023/12/24 01:17:07;;;;;;;9.30;2.30;;;;;;;2.14;83.71;99378.71;110959;1212;99033;-66
2023/12/24 01:19:32;;;;;;;9.20;2.60;;;;;;;2.15;83.83;99381.67;110973;1210;138748;-66
2023/12/24 01:21:57;;;;;;;4.30;2.00;;;;;;;2.18;83.90;99379.30;111014;1219;97792;-66
2023/12/24 01:24:22;;;;;;;9.60;2.20;;;;;;;2.21;84.00;99384.31;110957;1209;138628;-65
2023/12/24 01:26:48;;;;;;;11.10;2.70;;;;;;;2.23;83.97;99384.96;111031;1206;98965;-65
2023/12/24 01:29:15;;;;;;;8.60;1.90;;;;;;;2.24;83.78;99387.77;111004;1212;99670;-66
2023/12/24 01:31:40;;;;;;;9.80;2.00;;;;;;;2.22;83.71;99386.41;110946;1206;142807;-66
2023/12/24 01:34:07;;;;;;;10.00;2.50;;;;;;;2.21;84.04;99383.08;111026;1208;99073;-65
2023/12/24 01:36:32;;;;;;;12.20;2.30;;;;;;;2.22;83.81;99382.34;110870;1208;138596;-65
2023/12/24 01:38:57;;;;;;;6.80;2.00;;;;;;;2.20;83.94;99373.59;111009;1206;99166;-66
2023/12/24 01:41:22;;;;;;;7.10;1.80;;;;;;;2.23;84.03;99380.91;110969;1206;98999;-65
2023/12/24 01:43:48;;;;;;;7.50;2.00;;;;;;;2.24;83.93;99382.12;110890;1209;138326;-65
2023/12/24 01:46:19;;;;;;;12.20;2.30;;;;;;;2.25;84.17;99382.96;111149;1206;98925;-65
2023/12/24 01:48:45;;;;;;;6.20;1.80;;;;;;;2.26;84.12;99386.99;110846;1206;138665;-66
2023/12/24 01:51:11;;;;;;;5.40;2.30;;;;;;;2.25;84.15;99388.59;110903;1209;99059;-66
2023/12/24 01:53:36;;;;;;;6.00;2.40;;;;;;;2.25;83.97;99390.36;111038;1209;99055;-66
2023/12/24 01:56:05;;;;;;;4.60;1.70;;;;;;;2.26;84.06;99393.85;110874;1210;138386;-65
2023/12/24 01:58:31;;;;;;;7.50;1.70;;;;;;;2.28;84.27;99396.96;111115;1205;99209;-66
2023/12/24 02:00:57;;;;;;;7.80;1.80;;;;;;;2.29;84.32;99393.61;110850;1209;138173;-65
2023/12/24 02:03:23;;;;;;;9.40;2.00;;;;;;;2.30;84.29;99395.34;111048;1206;99436;-66
2023/12/24 02:05:50;;;;;;;10.40;2.00;;;;;;;2.31;84.25;99397.96;111033;1210;107438;-66
2023/12/24 02:08:18;;;;;;;7.40;2.40;;;;;;;2.31;84.29;99396.55;110831;1206;138729;-65
2023/12/24 02:10:44;;;;;;;7.30;2.20;;;;;;;2.31;84.23;99391.79;111128;1212;98624;-66
2023/12/24 02:13:12;;;;;;;7.50;2.10;;;;;;;2.27;84.29;99393.30;110826;1209;138289;-65
2023/12/24 02:15:38;;;;;;;7.00;2.00;;;;;;;2.25;84.14;99389.67;110992;1206;100217;-66
2023/12/24 02:18:06;;;;;;;10.00;2.40;;;;;;;2.22;84.21;99381.99;111057;1209;99032;-65
2023/12/24 02:20:31;;;;;;;6.90;1.90;;;;;;;2.20;84.27;99384.88;110833;1209;138367;-65
2023/12/24 02:22:57;;;;;;;5.70;1.80;;;;;;;2.20;84.28;99381.71;111012;1206;99063;-66
2023/12/24 02:25:23;;;;;;;4.70;1.70;;;;;;;2.20;84.54;99380.29;110843;1209;138206;-65
2023/12/24 02:28:23;;;;;;;9.70;2.20;;;;;;;2.17;84.32;99382.83;110988;1206;99766;-65
2023/12/24 02:30:52;;;;;;;6.10;1.90;;;;;;;2.15;84.46;99384.48;110843;1206;139005;-65
2023/12/24 02:33:19;;;;;;;5.80;2.20;;;;;;;2.14;84.56;99390.18;110953;1209;99005;-65
2023/12/24 02:35:47;;;;;;;9.50;2.00;;;;;;;2.15;84.66;99390.69;111008;1206;98929;-65
2023/12/24 02:38:13;;;;;;;7.90;2.20;;;;;;;2.15;84.52;99389.95;110829;1209;138318;-65
2023/12/24 02:40:38;;;;;;;7.00;2.20;;;;;;;2.14;84.72;99383.11;111014;1205;99064;-65
2023/12/24 02:43:04;;;;;;;6.90;2.50;;;;;;;2.16;84.70;99388.00;110931;1210;138941;-65
2023/12/24 02:45:29;;;;;;;9.40;2.50;;;;;;;2.18;84.77;99389.33;110945;1212;100276;-65
2023/12/24 02:47:54;;;;;;;8.20;2.80;;;;;;;2.19;84.88;99390.71;111123;1205;98949;-65
2023/12/24 02:50:20;;;;;;;12.70;2.90;;;;;;;2.20;84.74;99394.05;110850;1222;139710;-65
2023/12/24 02:52:46;;;;;;;6.60;2.30;;;;;;;2.18;84.84;99394.98;110989;1209;99097;-65
2023/12/24 02:55:12;;;;;;;9.70;2.60;;;;;;;2.16;84.75;99403.33;110912;1206;138748;-65
2023/12/24 02:57:37;;;;;;;5.20;1.60;;;;;;;2.12;84.86;99404.49;110959;1206;108154;-65
2023/12/24 03:00:11;;;;;;;8.60;2.30;;;;;;;2.12;85.09;99400.64;110908;1209;98364;-65
2023/12/24 03:02:37;;;;;;;5.50;1.70;;;;;;;2.15;85.13;99400.71;111438;1206;100118;-64
2023/12/24 03:05:02;;;;;;;4.10;1.80;;;;;;;2.15;84.92;99406.34;110959;1206;99051;-64
2023/12/24 03:07:28;;;;;;;11.30;2.10;;;;;;;2.15;85.20;99405.65;110931;1210;143588;-65
2023/12/24 03:09:54;;;;;;;4.70;1.60;;;;;;;2.14;85.11;99404.27;111007;1210;98948;-65
2023/12/24 03:12:19;;;;;;;6.60;2.00;;;;;;;2.13;85.19;99405.52;110867;1206;139523;-65
2023/12/24 03:14:44;;;;;;;4.60;1.80;;;;;;;2.13;85.27;99409.56;111068;1220;98999;-65
2023/12/24 03:17:09;;;;;;;4.80;2.10;;;;;;;2.11;85.16;99411.58;110983;1206;99113;-65
2023/12/24 03:19:35;;;;;;;8.20;2.10;;;;;;;2.10;85.22;99406.84;110945;1212;138380;-65
2023/12/24 03:22:00;;;;;;;4.50;2.40;;;;;;;2.12;85.41;99406.08;110951;1209;99300;-65
2023/12/24 03:24:25;;;;;;;9.80;2.50;;;;;;;2.15;85.48;99407.22;110946;1209;138506;-65
2023/12/24 03:26:50;;;;;;;10.70;1.90;;;;;;;2.16;85.63;99410.36;110974;1206;100606;-65
2023/12/24 03:29:16;;;;;;;8.30;2.10;;;;;;;2.18;85.57;99410.84;110946;1206;98941;-65
2023/12/24 03:31:41;;;;;;;7.90;1.80;;;;;;;2.19;85.47;99413.64;110987;1209;144346;-65
2023/12/24 03:34:07;;;;;;;5.40;2.10;;;;;;;2.16;85.46;99409.50;111018;1225;98943;-65
2023/12/24 03:36:32;;;;;;;6.30;1.70;;;;;;;2.16;85.64;99414.23;110859;1210;142354;-65
2023/12/24 03:38:58;;;;;;;9.80;2.30;;;;;;;2.17;85.42;99410.88;110982;1209;112653;-65
2023/12/24 03:41:23;;;;;;;5.00;2.40;;;;;;;2.17;85.44;99415.11;110970;1206;98932;-65
2023/12/24 03:43:48;;;;;;;23.10;3.60;;;;;;;2.15;85.64;99415.16;110875;1209;139865;-65
2023/12/24 03:46:18;;;;;;;7.40;2.50;;;;;;;2.15;85.63;99420.27;110963;1206;100439;-65
2023/12/24 03:48:44;;;;;;;5.90;2.00;;;;;;;2.14;85.61;99421.35;111284;1206;138830;-65
2023/12/24 03:51:11;;;;;;;6.60;2.00;;;;;;;2.12;85.59;99418.95;110935;1209;99045;-65
2023/12/24 03:53:37;;;;;;;10.90;2.20;;;;;;;2.10;85.84;99419.70;110910;1206;98958;-65
2023/12/24 03:56:03;;;;;;;5.40;2.20;;;;;;;2.10;85.94;99419.01;110921;1212;139469;-65
2023/12/24 03:58:28;;;;;;;5.80;2.00;;;;;;;2.08;85.64;99418.36;110923;1209;99037;-65
2023/12/24 04:00:53;;;;;;;8.30;2.50;;;;;;;2.06;85.64;99410.48;110851;1206;138723;-65
2023/12/24 04:03:18;;;;;;;4.30;1.60;;;;;;;2.02;85.80;99409.55;110971;1206;99073;-65
2023/12/24 04:05:44;;;;;;;4.10;1.70;;;;;;;1.99;85.95;99415.45;110986;1206;99060;-65
2023/12/24 04:08:09;;;;;;;6.90;2.30;;;;;;;1.94;85.78;99412.06;110886;1210;141748;-65
2023/12/24 04:10:39;;;;;;;7.90;2.20;;;;;;;1.94;86.00;99414.35;110917;1208;99814;-65
2023/12/24 04:13:04;;;;;;;7.30;1.60;;;;;;;1.94;86.05;99418.21;110890;1206;138696;-65
2023/12/24 04:15:30;;;;;;;5.90;1.80;;;;;;;1.92;85.90;99415.98;111013;1218;98805;-65
2023/12/24 04:17:55;;;;;;;6.10;1.70;;;;;;;1.91;85.93;99413.38;111068;1210;99903;-65
2023/12/24 04:20:21;;;;;;;7.30;1.90;;;;;;;1.92;86.15;99412.64;110762;1209;138403;-65
2023/12/24 04:22:46;;;;;;;2.60;1.20;;;;;;;1.95;86.23;99415.73;110985;1206;99015;-65
2023/12/24 04:25:11;;;;;;;5.60;2.50;;;;;;;1.92;86.14;99415.30;110806;1209;139104;-65
2023/12/24 04:27:37;;;;;;;6.30;1.50;;;;;;;1.88;86.14;99419.80;110973;1206;98702;-64
2023/12/24 04:30:02;;;;;;;3.00;1.50;;;;;;;1.85;86.03;99428.34;110985;1208;99315;-65
2023/12/24 04:32:28;;;;;;;4.70;1.80;;;;;;;1.81;85.99;99418.24;110882;1206;138283;-65
2023/12/24 04:34:53;;;;;;;2.60;1.50;;;;;;;1.81;86.17;99418.26;111002;1210;99001;-65
2023/12/24 04:37:18;;;;;;;3.20;1.70;;;;;;;1.82;86.24;99415.38;110718;1206;139327;-65
2023/12/24 04:39:44;;;;;;;2.40;1.30;;;;;;;1.84;86.43;99414.64;110716;1211;99012;-65
2023/12/24 04:42:09;;;;;;;2.50;1.30;;;;;;;1.83;86.32;99410.95;111000;1206;100793;-65
2023/12/24 04:44:38;;;;;;;4.90;1.30;;;;;;;1.83;86.44;99405.15;110850;1209;139913;-65
2023/12/24 04:47:06;;;;;;;4.00;1.20;;;;;;;1.82;86.51;99405.69;110966;1210;99353;-65
2023/12/24 04:49:31;;;;;;;4.30;1.20;;;;;;;1.82;86.48;99404.83;110845;1210;138777;-66
2023/12/24 04:51:56;;;;;;;3.10;1.70;;;;;;;1.85;86.51;99399.63;110983;1210;99594;-65
2023/12/24 04:54:22;;;;;;;2.30;1.10;;;;;;;1.86;86.71;99397.31;110943;1206;140264;-65
2023/12/24 04:56:47;;;;;;;2.30;1.50;;;;;;;1.86;86.66;99393.08;110927;1209;97830;-65
2023/12/24 04:59:12;;;;;;;5.00;1.50;;;;;;;1.85;86.51;99393.64;111020;1211;99172;-65
2023/12/24 05:01:38;;;;;;;2.10;1.30;;;;;;;1.82;86.52;99394.25;110863;1206;139872;-65
2023/12/24 05:04:03;;;;;;;2.20;1.40;;;;;;;1.79;86.61;99397.34;110993;1210;99001;-65
2023/12/24 05:06:29;;;;;;;1.30;1.20;;;;;;;1.77;86.62;99402.15;110900;1209;138422;-65
2023/12/24 05:08:54;;;;;;;5.10;1.30;;;;;;;1.74;86.62;99403.46;110932;1209;99457;-65
2023/12/24 05:11:20;;;;;;;1.40;1.30;;;;;;;1.72;86.65;99412.33;110849;1212;100446;-65
2023/12/24 05:13:45;;;;;;;3.20;1.50;;;;;;;1.72;86.66;99412.49;110888;1210;137455;-65
2023/12/24 05:16:10;;;;;;;5.00;1.20;;;;;;;1.68;86.52;99417.03;110934;1205;99049;-65
2023/12/24 05:18:36;;;;;;;2.70;1.70;;;;;;;1.64;86.71;99415.19;110932;1209;139211;-65
2023/12/24 05:21:01;;;;;;;3.00;1.20;;;;;;;1.65;86.81;99420.45;110977;1206;100823;-65
2023/12/24 05:23:27;;;;;;;3.60;1.40;;;;;;;1.66;87.00;99425.35;110994;1209;99492;-65
2023/12/24 05:25:52;;;;;;;5.70;1.70;;;;;;;1.66;86.89;99430.27;110802;1209;139678;-65
2023/12/24 05:28:18;;;;;;;4.70;1.70;;;;;;;1.69;87.00;99433.02;110898;1206;99267;-65
2023/12/24 05:30:47;;;;;;;4.80;1.60;;;;;;;1.71;87.08;99433.52;110899;1206;138439;-65
2023/12/24 05:33:12;;;;;;;9.00;1.80;;;;;;;1.71;87.03;99429.77;110925;1206;99391;-65
2023/12/24 05:35:38;;;;;;;1.60;1.40;;;;;;;1.71;87.01;99428.73;111002;1209;99486;-65
2023/12/24 05:38:04;;;;;;;2.80;1.70;;;;;;;1.69;87.02;99428.80;111082;1209;138365;-65
2023/12/24 05:40:29;;;;;;;3.30;1.70;;;;;;;1.65;86.86;99429.41;110958;1212;99012;-65
2023/12/24 05:42:54;;;;;;;3.00;1.70;;;;;;;1.59;86.95;99431.15;110833;1211;138573;-65
2023/12/24 05:45:21;;;;;;;2.50;1.60;;;;;;;1.61;87.14;99433.57;110994;1206;99060;-65
2023/12/24 05:47:47;;;;;;;2.20;1.50;;;;;;;1.66;87.46;99431.52;110984;1211;100008;-65
2023/12/24 05:50:12;;;;;;;3.40;1.90;;;;;;;1.70;87.21;99432.10;110803;1206;137636;-65
2023/12/24 05:52:39;;;;;;;3.30;1.90;;;;;;;1.70;87.24;99427.89;111060;1207;99109;-65
2023/12/24 05:55:07;;;;;;;4.20;1.90;;;;;;;1.67;87.29;99420.73;110858;1205;139856;-65
2023/12/24 05:57:32;;;;;;;2.20;1.70;;;;;;;1.69;87.26;99418.03;111109;1206;100423;-65
2023/12/24 05:59:57;;;;;;;3.10;1.70;;;;;;;1.68;87.12;99419.14;110890;1206;98946;-65
2023/12/24 06:02:23;;;;;;;4.20;2.20;;;;;;;1.65;87.14;99422.03;110781;1205;138507;-65
2023/12/24 06:04:48;;;;;;;2.50;1.80;;;;;;;1.63;87.38;99422.59;110880;1209;98944;-65
2023/12/24 06:07:13;;;;;;;2.00;1.70;;;;;;;1.62;87.24;99422.98;110932;1226;139143;-64
2023/12/24 06:09:38;;;;;;;2.30;1.90;;;;;;;1.62;87.33;99423.86;110964;1209;100703;-65
2023/12/24 06:12:06;;;;;;;3.10;2.20;;;;;;;1.56;87.38;99424.55;111079;1219;98942;-65
2023/12/24 06:14:31;;;;;;;3.50;2.60;;;;;;;1.60;87.30;99433.61;110896;1222;138538;-65
2023/12/24 06:16:56;;;;;;;3.10;2.70;;;;;;;1.58;87.47;99436.27;110876;1209;99210;-65
2023/12/24 06:19:21;;;;;;;3.30;2.30;;;;;;;1.62;87.54;99442.17;110900;1209;138342;-65
2023/12/24 06:21:47;;;;;;;4.00;3.10;;;;;;;1.65;87.47;99441.92;110999;1206;98898;-65
2023/12/24 06:24:12;;;;;;;2.80;2.50;;;;;;;1.66;87.52;99443.65;111004;1209;99060;-65
2023/12/24 06:26:37;;;;;;;4.50;2.90;;;;;;;1.66;87.59;99435.55;110876;1211;138704;-65
2023/12/24 06:29:02;;;;;;;3.70;2.80;;;;;;;1.65;87.58;99431.00;111013;1209;99914;-65
2023/12/24 06:31:29;;;;;;;3.30;2.00;;;;;;;1.65;87.60;99433.65;110847;1209;138260;-65
2023/12/24 06:33:54;;;;;;;3.00;2.60;;;;;;;1.62;87.49;99437.77;111156;1206;98968;-65
2023/12/24 06:36:19;;;;;;;4.40;3.30;;;;;;;1.59;87.43;99438.92;110936;1208;139961;-65
2023/12/24 06:38:45;;;;;;;5.00;3.30;;;;;;;1.54;87.54;99441.32;111033;1206;98922;-65
2023/12/24 06:41:10;;;;;;;5.20;3.10;;;;;;;1.57;87.76;99445.65;110984;1209;98949;-65
2023/12/24 06:43:37;;;;;;;5.60;3.00;;;;;;;1.61;87.89;99451.00;110895;1209;140089;-65
2023/12/24 06:46:03;;;;;;;2.90;2.50;;;;;;;1.63;87.81;99450.77;110929;1225;99396;-65
2023/12/24 06:48:28;;;;;;;4.00;2.40;;;;;;;1.64;87.75;99445.81;110861;1208;138469;-65
2023/12/24 06:50:53;;;;;;;3.20;2.60;;;;;;;1.65;87.88;99447.56;110989;1206;98981;-65
2023/12/24 06:53:19;;;;;;;3.50;2.20;;;;;;;1.64;87.72;99446.52;110921;1206;99370;-65
2023/12/24 06:55:44;;;;;;;3.20;2.20;;;;;;;1.64;87.88;99448.98;110953;1209;138869;-65
2023/12/24 06:58:09;;;;;;;3.50;1.90;;;;;;;1.67;88.00;99447.49;110990;1206;98960;-65
2023/12/24 07:00:35;;;;;;;3.60;2.10;;;;;;;1.70;88.01;99448.84;110774;1210;138293;-66
2023/12/24 07:03:00;;;;;;;5.70;1.90;;;;;;;1.72;88.08;99448.27;110992;1206;98642;-67
2023/12/24 07:05:25;;;;;;;2.10;1.70;;;;;;;1.73;88.00;99445.23;110937;1209;99333;-67
2023/12/24 07:07:50;;;;;;;2.50;1.60;;;;;;;1.75;87.94;99448.88;110780;1206;139581;-67
2023/12/24 07:10:16;;;;;;;1.80;1.40;;;;;;;1.74;87.95;99455.23;110805;1211;99056;-67
2023/12/24 07:12:41;;;;;;;4.70;1.70;;;;;;;1.73;87.95;99456.69;110824;1206;142702;-67
2023/12/24 07:15:07;;;;;;;2.60;2.00;;;;;;;1.71;87.87;99454.62;110844;1206;99426;-68
2023/12/24 07:17:33;;;;;;;2.40;1.40;;;;;;;1.70;87.96;99458.17;110978;1209;98949;-67
2023/12/24 07:20:00;;;;;;;1.80;1.60;;;;;;;1.69;87.89;99459.25;110810;1206;138909;-67
2023/12/24 07:22:26;;;;;;;3.50;1.80;;;;;;;1.67;88.10;99453.84;113224;1205;113132;-67
2023/12/24 07:24:53;;;;;;;3.60;2.30;;;;;;;1.66;87.97;99448.23;113129;1206;139022;-67
2023/12/24 07:27:21;;;;;;;2.80;2.20;;;;;;;1.67;88.11;99447.15;113233;1205;97236;-68
2023/12/24 07:29:48;;;;;;;3.40;2.50;;;;;;;1.70;88.03;99454.48;113246;1205;98339;-67
2023/12/24 07:32:13;;;;;;;4.20;2.30;;;;;;;1.70;88.16;99453.59;110987;1210;138878;-67
2023/12/24 07:34:38;;;;;;;3.80;2.40;;;;;;;1.68;88.37;99442.36;110975;1209;98958;-67
2023/12/24 07:37:04;;;;;;;5.50;2.40;;;;;;;1.71;88.21;99438.77;110705;1209;138415;-67
2023/12/24 07:39:29;;;;;;;3.90;2.60;;;;;;;1.70;88.40;99436.67;110838;1206;99950;-67
2023/12/24 07:41:55;;;;;;;5.40;2.00;;;;;;;1.73;88.38;99436.27;110792;1209;98913;-68
2023/12/24 07:44:21;;;;;;;3.80;1.80;;;;;;;1.72;88.10;99439.81;110767;1209;138245;-66
2023/12/24 07:46:46;;;;;;;2.50;1.90;;;;;;;1.70;88.26;99434.04;110936;1212;98951;-67
2023/12/24 07:49:12;;;;;;;4.40;2.20;;;;;;;1.70;88.28;99436.34;110752;1206;139187;-67
2023/12/24 07:51:37;;;;;;;5.00;2.10;;;;;;;1.70;88.38;99434.74;110800;1206;99325;-67
2023/12/24 07:54:03;;;;;;;2.40;1.60;;;;;;;1.69;88.44;99437.40;110940;1212;98976;-67
2023/12/24 07:56:30;;;;;;;4.50;2.20;;;;;;;1.69;88.48;99440.92;110869;1209;139379;-67
2023/12/24 07:58:55;;;;;;;3.20;1.90;;;;;;;1.71;88.63;99441.94;110864;1206;99415;-67
2023/12/24 08:01:21;;;;;;;4.50;2.20;;;;;;;1.72;88.49;99437.16;110748;1209;138365;-67
2023/12/24 08:03:46;;;;;;;6.80;2.60;;;;;;;1.71;88.61;99435.77;110895;1209;108029;-67
2023/12/24 08:06:12;;;;;;;6.10;2.60;;;;;;;1.70;88.63;99433.88;110726;1210;99095;-67
2023/12/24 08:08:38;;;;;;;6.40;2.90;;;;;;;1.68;88.64;99437.98;110772;1206;139364;-68
2023/12/24 08:11:03;;;;;;;6.00;3.00;;;;;;;1.67;88.67;99432.00;110877;1208;98954;-67
2023/12/24 08:13:28;;;;;;;6.80;3.30;;;;;;;1.67;88.69;99432.37;110645;1205;138831;-67
2023/12/24 08:15:53;;;;;;;5.70;2.90;;;;;;;1.65;88.61;99425.55;110852;1206;99078;-67
2023/12/24 08:18:20;;;;;;;7.40;3.40;;;;;;;1.66;88.78;99419.00;110827;1209;99447;-67
2023/12/24 08:20:45;;;;;;;9.20;5.20;;;;;;;1.68;88.77;99415.25;110742;1206;139984;-67
2023/12/24 08:23:10;;;;;;;7.20;3.60;;;;;;;1.69;88.68;99411.17;110907;1225;99076;-67
2023/12/24 08:25:36;;;;;;;7.80;4.20;;;;;;;1.71;88.84;99407.27;110734;1210;138931;-67
2023/12/24 08:28:03;;;;;;;7.20;4.80;;;;;;;1.71;88.96;99400.02;111349;1206;99006;-67
2023/12/24 08:30:29;;;;;;;8.70;4.70;;;;;;;1.73;88.86;99402.10;110699;1209;138610;-67
2023/12/24 08:32:54;;;;;;;8.30;5.50;;;;;;;1.70;88.85;99397.94;110858;1207;98936;-67
2023/12/24 08:35:20;;;;;;;9.30;5.90;;;;;;;1.71;88.99;99397.91;110899;1208;98957;-67
2023/12/24 08:37:45;;;;;;;9.30;6.00;;;;;;;1.71;88.94;99395.45;110799;1209;138284;-67
2023/12/24 08:40:11;;;;;;;11.20;6.10;;;;;;;1.73;89.08;99396.61;110960;1207;98944;-67
2023/12/24 08:42:37;;;;;;;14.70;7.30;;;;;;;1.76;88.99;99395.67;110758;1209;138649;-67
2023/12/24 08:45:04;;;;;;;10.80;6.90;;;;;;;1.77;89.12;99395.81;110876;1206;99113;-67
2023/12/24 08:47:29;;;;;;;13.20;7.20;;;;;;;1.77;88.88;99398.63;112270;1206;99047;-67
2023/12/24 08:49:56;;;;;;;13.40;7.00;;;;;;;1.79;89.12;99399.97;110809;1219;139540;-67
2023/12/24 08:52:22;;;;;;;10.20;5.90;;;;;;;1.80;89.01;99394.14;110867;1206;99038;-67
2023/12/24 08:54:47;;;;;;;12.00;6.60;;;;;;;1.78;89.03;99388.91;110735;1210;142048;-67
2023/12/24 08:57:12;;;;;;;12.30;6.60;;;;;;;1.78;89.23;99383.81;110866;1206;98957;-67
2023/12/24 08:59:38;;;;;;;9.90;5.80;;;;;;;1.78;88.96;99383.82;110847;1208;99116;-67
2023/12/24 09:02:03;;;;;;;10.00;6.30;;;;;;;1.79;89.13;99384.66;110815;1210;138751;-67
2023/12/24 09:04:29;;;;;;;14.90;6.70;;;;;;;1.80;89.35;99377.93;110883;1210;99556;-67
2023/12/24 09:06:54;;;;;;;10.10;6.20;;;;;;;1.80;89.12;99373.00;110702;1213;140205;-67
2023/12/24 09:09:19;;;;;;;11.10;5.60;;;;;;;1.81;89.15;99373.33;110911;1206;98929;-67
2023/12/24 09:11:44;;;;;;;17.10;6.80;;;;;;;1.80;89.30;99371.24;110945;1209;100478;-67
2023/12/24 09:14:09;;;;;;;9.80;4.90;;;;;;;1.83;89.31;99371.51;110816;1209;139479;-67
2023/12/24 09:16:36;;;;;;;7.40;3.80;;;;;;;1.85;89.34;99364.23;110785;1211;98916;-67
2023/12/24 09:19:01;;;;;;;7.50;4.50;;;;;;;1.87;89.44;99366.11;110896;1209;138857;-67
2023/12/24 09:21:26;;;;;;;7.70;4.50;;;;;;;1.88;89.44;99367.48;110943;1209;99054;-67
2023/12/24 09:23:54;;;;;;;8.90;4.10;;;;;;;1.89;89.35;99359.88;110926;1207;98963;-67
2023/12/24 09:26:19;;;;;;;8.80;4.30;;;;;;;1.91;89.38;99365.47;110668;1209;138720;-67
2023/12/24 09:28:44;;;;;;;8.10;4.40;;;;;;;1.89;89.45;99361.63;110956;1206;100526;-67
2023/12/24 09:31:09;;;;;;;7.00;4.70;;;;;;;1.91;89.64;99351.90;110734;1210;138684;-67
2023/12/24 09:33:35;;;;;;;8.30;4.70;;;;;;;1.94;89.52;99360.44;110929;1209;99686;-67
2023/12/24 09:36:06;;;;;;;7.90;4.90;;;;;;;1.94;89.48;99370.13;110953;1210;99631;-66
2023/12/24 09:38:33;;;;;;;7.80;5.60;;;;;;;1.92;89.49;99359.81;110761;1211;138220;-68
2023/12/24 09:41:00;;;;;;;10.90;6.50;;;;;;;1.89;89.39;99338.92;111011;1206;99130;-70
2023/12/24 09:43:34;;;;;;;9.90;5.40;;;;;;;1.89;89.67;99321.83;110709;1208;139131;-69
2023/12/24 09:46:02;;;;;;;6.70;4.40;;;;;;;1.90;89.68;99321.46;111033;1212;99575;-70
2023/12/24 09:48:29;;;;;;;24.10;9.30;;;;;;;1.94;89.67;99319.20;110852;1212;138874;-69
2023/12/24 09:50:55;;;;;;;19.00;8.00;;;;;;;1.97;89.60;99316.86;110962;1209;112183;-71
2023/12/24 09:53:21;;;;;;;14.20;7.50;;;;;;;1.94;89.65;99311.64;110988;1206;99045;-69
2023/12/24 09:55:47;;;;;;;11.20;6.40;;;;;;;1.98;89.59;99305.55;110691;1208;138547;-68
2023/12/24 09:58:12;;;;;;;7.90;5.10;;;;;;;2.01;89.89;99301.41;110965;1206;99368;-68
2023/12/24 10:00:39;;;;;;;6.10;3.90;;;;;;;2.01;89.72;99298.05;110836;1206;139242;-71
2023/12/24 10:03:04;;;;;;;6.30;4.40;;;;;;;2.02;89.64;99294.50;111672;1206;99013;-70
2023/12/24 10:05:32;;;;;;;4.90;3.50;;;;;;;2.02;89.70;99281.83;111609;1206;99045;-72
2023/12/24 10:08:02;;;;;;;8.50;4.10;;;;;;;2.00;89.69;99276.07;111305;1206;140937;-71
2023/12/24 10:10:36;;;;;;;5.80;3.60;;;;;;;2.00;89.88;99273.77;111617;1206;112366;-74
2023/12/24 10:13:05;;;;;;;5.10;3.50;;;;;;;2.01;89.80;99277.27;111472;1210;138495;-71
2023/12/24 10:15:32;;;;;;;7.20;3.40;;;;;;;2.03;89.93;99279.32;111636;1209;107438;-69
2023/12/24 10:18:15;;;;;;;5.80;3.90;;;;;;;2.04;89.76;99280.70;111693;1206;99041;-70
2023/12/24 10:20:40;;;;;;;9.20;5.20;;;;;;;2.05;89.97;99277.15;111544;1206;138322;-70
2023/12/24 10:23:08;;;;;;;24.00;9.90;;;;;;;2.05;89.90;99271.85;111700;1208;99454;-72
2023/12/24 10:25:34;;;;;;;27.20;11.40;;;;;;;2.06;89.96;99262.15;111514;1209;138338;-69
2023/12/24 10:28:07;;;;;;;30.30;10.60;;;;;;;2.06;90.02;99253.70;111633;1210;99000;-72
2023/12/24 10:30:33;;;;;;;15.60;6.50;;;;;;;2.06;89.94;99245.57;111575;1206;140843;-71
2023/12/24 10:33:09;;;;;;;10.70;5.40;;;;;;;2.08;90.13;99237.41;111565;1206;99030;-72
2023/12/24 10:35:36;;;;;;;10.60;4.70;;;;;;;2.09;90.15;99234.71;111628;1221;99919;-69
2023/12/24 10:38:15;;;;;;;10.50;6.20;;;;;;;2.12;90.09;99234.30;111477;1207;138779;-69
2023/12/24 10:40:41;;;;;;;11.80;6.30;;;;;;;2.14;90.29;99225.23;110931;1211;100251;-69
2023/12/24 10:43:07;;;;;;;13.90;7.30;;;;;;;2.16;90.17;99221.11;110876;1209;139167;-70
2023/12/24 10:45:32;;;;;;;22.50;9.50;;;;;;;2.15;90.14;99212.52;110944;1207;98929;-69
2023/12/24 10:47:57;;;;;;;24.40;11.20;;;;;;;2.16;90.05;99202.27;110907;1209;99074;-69
2023/12/24 10:50:29;;;;;;;22.10;9.00;;;;;;;2.17;90.22;99198.20;110859;1206;138666;-71
2023/12/24 10:52:57;;;;;;;;;;;;;;;2.16;90.34;99190.81;110924;1211;99053;-69
2023/12/24 10:55:22;;;;;;;15.50;7.30;;;;;;;2.18;90.52;99180.67;110759;1207;124631;-72
2023/12/24 10:58:25;;;;;;;17.20;8.80;;;;;;;2.19;90.44;99174.84;111264;1211;100243;-71
2023/12/24 11:00:51;;;;;;;13.10;7.60;;;;;;;2.21;90.32;99172.66;110970;1211;138626;-73
2023/12/24 11:03:48;;;;;;;14.10;7.40;;;;;;;2.23;90.40;99173.66;110901;1209;98984;-72
2023/12/24 11:06:41;;;;;;;19.90;9.10;;;;;;;2.24;90.46;99167.11;110967;1206;98978;-72
2023/12/24 11:09:13;;;;;;;16.40;8.70;;;;;;;2.25;90.35;99159.15;110884;1211;112474;-72
2023/12/24 11:11:52;;;;;;;16.70;7.60;;;;;;;2.27;90.49;99154.14;110772;1210;99906;-73
2023/12/24 11:14:45;;;;;;;16.20;7.60;;;;;;;2.27;90.63;99150.44;110849;1209;138536;-73
2023/12/24 11:17:33;;;;;;;14.60;7.70;;;;;;;2.28;90.53;99146.35;110890;1209;99078;-73
2023/12/24 11:20:18;;;;;;;13.00;7.50;;;;;;;2.27;90.48;99141.08;110786;1210;139973;-72
2023/12/24 11:23:02;;;;;;;12.70;6.90;;;;;;;2.30;90.71;99135.37;110935;1219;111877;-72
2023/12/24 11:25:46;;;;;;;10.30;6.20;;;;;;;2.31;90.46;99129.52;110776;1219;138583;-71